Terminal Aerodrome Forecast
Issued by NWS

Current Version | Previous Version | Text Only | Print | Product List | Glossary Off
Versions: 1 2 3 4 5 6 7 8 9 10 11 12 13 14

000
FTUS44 KSJT 201700
TAFSOA
TAF
KSOA 201724Z 2018/2118 20011KT P6SM SCT035 SCT250
     FM210000 VRB05KT P6SM SCT250
     FM210600 VRB03KT P6SM OVC010
     FM211000 VRB03KT 5SM BR OVC006
     FM211500 18007KT P6SM BKN018=

USA.gov is the U.S. government's official web portal to all federal, state and local government web resources and services.